createdAt,value
2022-08-18T00:02:22.917Z,18.20
2022-08-18T00:04:57.127Z,18.30
2022-08-18T00:07:30.947Z,18.40
2022-08-18T00:10:00.888Z,18.40
2022-08-18T00:12:41.147Z,18.30
2022-08-18T00:15:11.334Z,18.30
2022-08-18T00:17:38.399Z,18.30
2022-08-18T00:20:11.930Z,18.30
2022-08-18T00:22:39.900Z,18.30
2022-08-18T00:25:10.163Z,18.40
2022-08-18T00:27:38.329Z,18.30
2022-08-18T00:30:07.785Z,18.30
2022-08-18T00:32:37.797Z,18.20
2022-08-18T00:35:20.734Z,18.20
2022-08-18T00:37:49.071Z,18.30
2022-08-18T00:40:19.221Z,18.30
2022-08-18T00:42:50.014Z,18.30
2022-08-18T00:45:21.182Z,18.30
2022-08-18T00:47:47.814Z,18.30
2022-08-18T00:50:19.328Z,18.30
2022-08-18T00:52:58.222Z,18.40
2022-08-18T00:55:27.242Z,18.40
2022-08-18T00:58:01.176Z,18.40
2022-08-18T01:00:28.100Z,18.30
2022-08-18T01:02:58.944Z,18.20
2022-08-18T01:05:41.055Z,18.20
2022-08-18T01:08:11.935Z,18.10
2022-08-18T01:10:40.511Z,18.10
2022-08-18T01:13:08.071Z,18.00
2022-08-18T01:15:36.238Z,18.20
2022-08-18T01:18:43.246Z,18.20
2022-08-18T01:21:31.599Z,18.20
2022-08-18T01:23:58.850Z,18.20
2022-08-18T01:26:28.438Z,18.20
2022-08-18T01:28:55.093Z,18.20
2022-08-18T01:31:38.453Z,18.30
2022-08-18T01:34:07.236Z,18.30
2022-08-18T01:36:37.439Z,18.30
2022-08-18T01:39:07.145Z,18.30
2022-08-18T01:41:33.936Z,18.30
2022-08-18T01:44:03.305Z,18.30
2022-08-18T01:46:33.655Z,18.20
2022-08-18T01:49:01.612Z,18.30
2022-08-18T01:51:38.112Z,18.30
2022-08-18T01:54:08.668Z,18.30
2022-08-18T01:56:36.621Z,18.20
2022-08-18T01:59:03.502Z,18.30
2022-08-18T02:01:34.823Z,18.20
2022-08-18T02:04:33.250Z,18.20
2022-08-18T02:06:55.848Z,18.20
2022-08-18T02:09:24.075Z,18.20
2022-08-18T02:11:53.611Z,18.20
2022-08-18T02:14:25.082Z,18.20
2022-08-18T02:17:01.738Z,18.20
2022-08-18T02:19:34.529Z,18.20
2022-08-18T02:22:01.665Z,18.20
2022-08-18T02:24:28.421Z,18.20
2022-08-18T02:26:55.217Z,18.20
2022-08-18T02:29:22.036Z,18.10
2022-08-18T02:31:48.662Z,18.10
2022-08-18T02:34:16.512Z,18.10
2022-08-18T02:36:43.261Z,18.00
2022-08-18T02:39:09.911Z,18.00
2022-08-18T02:41:36.871Z,17.90
2022-08-18T02:44:05.898Z,17.90
2022-08-18T02:46:32.701Z,17.80
2022-08-18T02:49:00.548Z,17.80
2022-08-18T02:51:27.465Z,17.80
2022-08-18T02:53:54.821Z,17.70
2022-08-18T02:56:32.877Z,17.70
2022-08-18T02:59:11.637Z,17.70
2022-08-18T03:01:41.361Z,17.50
2022-08-18T03:04:10.214Z,17.40
2022-08-18T03:06:39.114Z,17.40
2022-08-18T03:09:07.874Z,17.40
2022-08-18T03:11:35.233Z,17.40
2022-08-18T03:14:02.534Z,17.40
2022-08-18T03:16:32.901Z,17.50
2022-08-18T03:19:01.861Z,17.50
2022-08-18T03:21:30.614Z,17.60
2022-08-18T03:24:01.050Z,17.60
2022-08-18T03:26:29.998Z,17.60
2022-08-18T03:28:58.771Z,17.60
2022-08-18T03:31:27.704Z,17.70
2022-08-18T03:33:59.172Z,17.70
2022-08-18T03:36:31.781Z,17.70
2022-08-18T03:39:02.114Z,17.70
2022-08-18T03:41:44.113Z,17.70
2022-08-18T03:44:21.044Z,17.50
2022-08-18T03:46:48.767Z,17.50
2022-08-18T03:49:15.585Z,17.50
2022-08-18T03:51:43.838Z,17.50
2022-08-18T03:54:13.323Z,17.50
2022-08-18T03:56:41.553Z,17.60
2022-08-18T03:59:12.301Z,17.60
2022-08-18T04:01:41.594Z,17.60
2022-08-18T04:04:12.916Z,17.60
2022-08-18T04:06:45.694Z,17.60
2022-08-18T04:09:14.351Z,17.60
2022-08-18T04:11:43.316Z,17.60
2022-08-18T04:14:14.039Z,17.50
2022-08-18T04:16:41.365Z,17.50
2022-08-18T04:19:09.372Z,17.50
2022-08-18T04:21:38.475Z,17.50
2022-08-18T04:24:07.580Z,17.50
2022-08-18T04:26:41.773Z,17.50
2022-08-18T04:29:10.635Z,17.40
2022-08-18T04:31:37.948Z,17.30
2022-08-18T04:34:05.291Z,17.30
2022-08-18T04:36:34.555Z,17.30
2022-08-18T04:39:03.522Z,17.20
2022-08-18T04:41:30.767Z,17.20
2022-08-18T04:43:59.417Z,17.20
2022-08-18T04:46:27.288Z,17.20
2022-08-18T04:49:01.315Z,17.20
2022-08-18T04:52:34.470Z,17.20
2022-08-18T04:54:16.437Z,17.20
2022-08-18T04:56:43.506Z,17.20
2022-08-18T04:59:14.130Z,17.10
2022-08-18T05:01:45.250Z,17.10
2022-08-18T05:04:14.192Z,17.10
2022-08-18T05:06:43.541Z,17.10
2022-08-18T05:09:11.854Z,17.10
2022-08-18T05:11:39.386Z,17.10
2022-08-18T05:14:07.979Z,17.20
2022-08-18T05:16:42.060Z,17.20
2022-08-18T05:19:19.741Z,17.20
2022-08-18T05:21:50.579Z,17.20
2022-08-18T05:24:18.056Z,17.30
2022-08-18T05:26:45.770Z,17.40
2022-08-18T05:29:18.949Z,17.30
2022-08-18T05:31:47.497Z,17.40
2022-08-18T05:34:14.395Z,17.50
2022-08-18T05:37:01.072Z,17.50
2022-08-18T05:39:46.244Z,17.60
2022-08-18T05:42:19.452Z,17.60
2022-08-18T05:44:49.914Z,17.60
2022-08-18T05:47:34.954Z,17.60
2022-08-18T05:50:08.796Z,17.60
2022-08-18T05:52:46.571Z,17.70
2022-08-18T05:55:38.411Z,17.70
2022-08-18T05:58:10.780Z,17.70
2022-08-18T06:00:38.148Z,17.70
2022-08-18T06:03:19.192Z,17.80
2022-08-18T06:05:58.666Z,17.80
2022-08-18T06:08:30.220Z,17.80
2022-08-18T06:10:57.024Z,17.80
2022-08-18T06:13:23.735Z,17.90
2022-08-18T06:16:18.513Z,17.80
2022-08-18T06:19:05.651Z,17.90
2022-08-18T06:21:47.381Z,18.00
2022-08-18T06:24:30.095Z,17.90
2022-08-18T06:27:14.493Z,17.90
2022-08-18T06:29:53.413Z,17.90
2022-08-18T06:32:37.397Z,18.00
2022-08-18T06:35:18.819Z,18.20
2022-08-18T06:38:18.243Z,18.20
2022-08-18T06:40:47.936Z,18.30
2022-08-18T06:43:16.963Z,18.30
2022-08-18T06:45:51.596Z,18.30
2022-08-18T06:48:29.913Z,18.30
2022-08-18T06:51:02.843Z,18.40
2022-08-18T06:53:52.600Z,18.40
2022-08-18T06:56:40.118Z,18.40
2022-08-18T06:59:26.474Z,18.50
2022-08-18T07:02:15.329Z,18.60
2022-08-18T07:04:57.829Z,18.70
2022-08-18T07:07:40.356Z,18.80
2022-08-18T07:10:16.400Z,18.90
2022-08-18T07:12:43.448Z,18.90
2022-08-18T07:15:13.070Z,18.90
2022-08-18T07:17:52.872Z,19.00
2022-08-18T07:20:25.347Z,18.90
2022-08-18T07:23:00.034Z,19.00
2022-08-18T07:25:31.922Z,18.90
2022-08-18T07:28:01.956Z,18.90
2022-08-18T07:30:33.531Z,19.00
2022-08-18T07:33:10.518Z,19.00
2022-08-18T07:35:57.098Z,19.00
2022-08-18T07:38:48.223Z,19.10
2022-08-18T07:41:16.467Z,19.20
2022-08-18T07:43:53.859Z,19.20
2022-08-18T07:46:31.849Z,19.30
2022-08-18T07:48:59.482Z,19.30
2022-08-18T07:51:54.541Z,19.40
2022-08-18T07:54:55.907Z,19.50
2022-08-18T07:57:47.642Z,19.60
2022-08-18T08:03:41.184Z,19.70
2022-08-18T08:06:23.772Z,19.90
2022-08-18T08:09:01.392Z,19.90
2022-08-18T08:11:53.960Z,19.90
2022-08-18T08:14:42.933Z,20.00
2022-08-18T08:17:48.714Z,20.10
2022-08-18T08:20:33.133Z,20.10
2022-08-18T08:23:27.289Z,20.20
2022-08-18T08:26:12.510Z,20.30
2022-08-18T08:29:16.709Z,20.30
2022-08-18T08:31:52.088Z,20.30
2022-08-18T08:34:35.292Z,20.30
2022-08-18T08:37:12.345Z,20.30
2022-08-18T08:40:00.442Z,20.40
2022-08-18T08:42:47.954Z,20.50
2022-08-18T08:45:37.928Z,20.60
2022-08-18T08:48:21.676Z,20.60
2022-08-18T08:50:55.175Z,20.60
2022-08-18T08:53:29.090Z,20.70
2022-08-18T08:56:02.935Z,20.70
2022-08-18T08:58:40.254Z,20.80
2022-08-18T09:01:12.527Z,20.80
2022-08-18T09:04:01.745Z,20.80
2022-08-18T09:06:51.265Z,20.80
2022-08-18T09:09:36.153Z,20.90
2022-08-18T09:12:17.640Z,20.90
2022-08-18T09:15:20.435Z,20.90
2022-08-18T09:17:53.044Z,20.80
2022-08-18T09:20:42.085Z,20.80
2022-08-18T09:23:14.659Z,20.90
2022-08-18T09:25:41.976Z,21.00
2022-08-18T09:28:12.557Z,21.00
2022-08-18T09:30:39.161Z,21.10
2022-08-18T09:33:19.770Z,21.10
2022-08-18T09:36:08.955Z,21.10
2022-08-18T09:39:07.293Z,21.10
2022-08-18T09:41:45.992Z,21.10
2022-08-18T09:44:42.875Z,21.10
2022-08-18T09:47:10.114Z,21.10
2022-08-18T09:49:54.676Z,21.10
2022-08-18T09:52:24.434Z,21.10
2022-08-18T09:54:59.648Z,21.00
2022-08-18T09:57:42.122Z,21.10
2022-08-18T10:00:12.440Z,21.10
2022-08-18T10:02:40.239Z,21.10
2022-08-18T10:05:16.706Z,21.20
2022-08-18T10:11:20.440Z,21.20
2022-08-18T10:14:24.943Z,21.40
2022-08-18T10:20:27.258Z,21.50
2022-08-18T10:22:56.475Z,21.60
2022-08-18T10:25:36.079Z,21.50
2022-08-18T10:28:05.703Z,21.70
2022-08-18T10:30:57.363Z,21.80
2022-08-18T10:33:55.435Z,21.80
2022-08-18T10:36:58.871Z,21.90
2022-08-18T10:39:43.932Z,22.00
2022-08-18T10:42:11.179Z,22.10
2022-08-18T10:44:45.510Z,22.10
2022-08-18T10:47:33.527Z,22.10
2022-08-18T10:50:06.895Z,22.10
2022-08-18T10:53:34.975Z,22.20
2022-08-18T10:56:09.992Z,22.20
2022-08-18T10:58:47.689Z,22.30
2022-08-18T11:01:26.211Z,22.30
2022-08-18T11:04:34.503Z,22.30
2022-08-18T11:07:11.970Z,22.30
2022-08-18T11:09:41.902Z,22.30
2022-08-18T11:12:12.664Z,22.30
2022-08-18T11:14:51.343Z,22.30
2022-08-18T11:17:42.858Z,22.30
2022-08-18T11:20:13.216Z,22.30
2022-08-18T11:22:51.629Z,22.40
2022-08-18T11:25:25.926Z,22.40
2022-08-18T11:27:56.317Z,22.50
2022-08-18T11:30:30.562Z,22.50
2022-08-18T11:32:59.688Z,22.60
2022-08-18T11:35:52.895Z,22.60
2022-08-18T11:38:23.345Z,22.70
2022-08-18T11:41:11.918Z,22.80
2022-08-18T11:43:43.168Z,22.80
2022-08-18T11:49:29.961Z,22.90
2022-08-18T11:52:08.621Z,23.00
2022-08-18T11:54:50.849Z,23.10
2022-08-18T11:57:42.084Z,23.10
2022-08-18T12:00:48.041Z,23.10
2022-08-18T12:03:51.210Z,23.10
2022-08-18T12:06:31.706Z,23.10
2022-08-18T12:09:45.508Z,23.00
2022-08-18T12:12:28.475Z,23.10
2022-08-18T12:15:24.083Z,23.10
2022-08-18T12:17:55.454Z,23.10
2022-08-18T12:20:22.832Z,23.20
2022-08-18T12:22:50.290Z,23.20
2022-08-18T12:25:25.371Z,23.30
2022-08-18T12:27:53.688Z,23.40
2022-08-18T12:30:20.429Z,23.40
2022-08-18T12:35:34.780Z,23.50
2022-08-18T12:38:11.138Z,23.50
2022-08-18T12:40:41.161Z,23.50
2022-08-18T12:43:07.993Z,23.60
2022-08-18T12:45:37.536Z,23.60
2022-08-18T12:48:05.248Z,23.60
2022-08-18T12:53:30.229Z,23.60
2022-08-18T12:56:16.940Z,23.50
2022-08-18T12:58:46.903Z,23.70
2022-08-18T13:01:13.786Z,23.60
2022-08-18T13:03:45.430Z,23.70
2022-08-18T13:06:33.707Z,23.70
2022-08-18T13:09:00.851Z,23.80
2022-08-18T13:11:27.927Z,23.80
2022-08-18T13:13:57.085Z,23.80
2022-08-18T13:16:39.249Z,23.80
2022-08-18T13:19:16.163Z,23.90
2022-08-18T13:21:43.178Z,23.80
2022-08-18T13:24:10.392Z,23.80
2022-08-18T13:26:46.153Z,23.80
2022-08-18T13:29:15.376Z,23.80
2022-08-18T13:31:57.243Z,23.80
2022-08-18T13:34:30.795Z,23.90
2022-08-18T13:37:00.620Z,23.80
2022-08-18T13:39:34.343Z,23.90
2022-08-18T13:42:21.558Z,23.90
2022-08-18T13:44:54.893Z,23.90
2022-08-18T13:47:22.645Z,23.90
2022-08-18T13:49:58.299Z,23.80
2022-08-18T13:52:38.745Z,23.90
2022-08-18T13:55:13.621Z,23.90
2022-08-18T13:57:41.782Z,24.00
2022-08-18T14:00:18.460Z,24.00
2022-08-18T14:02:53.643Z,24.00
2022-08-18T14:05:21.585Z,23.90
2022-08-18T14:08:05.041Z,23.90
2022-08-18T14:10:32.787Z,23.80
2022-08-18T14:13:09.409Z,23.80
2022-08-18T14:15:53.497Z,23.80
2022-08-18T14:18:21.312Z,23.80
2022-08-18T14:21:11.163Z,23.80
2022-08-18T14:24:06.256Z,23.80
2022-08-18T14:26:50.906Z,23.80
2022-08-18T14:29:45.623Z,23.70
2022-08-18T14:32:17.925Z,23.70
2022-08-18T14:34:50.674Z,23.70
2022-08-18T14:37:17.945Z,23.60
2022-08-18T14:39:52.260Z,23.60
2022-08-18T14:42:32.904Z,23.60
2022-08-18T14:45:26.942Z,23.60
2022-08-18T14:47:58.659Z,23.50
2022-08-18T14:50:26.677Z,23.50
2022-08-18T14:52:53.523Z,23.50
2022-08-18T14:55:20.384Z,23.60
2022-08-18T14:57:50.461Z,23.50
2022-08-18T15:00:22.708Z,23.50
2022-08-18T15:02:49.857Z,23.50
2022-08-18T15:05:19.852Z,23.50
2022-08-18T15:07:52.369Z,23.50
2022-08-18T15:10:23.336Z,23.50
2022-08-18T15:12:50.458Z,23.40
2022-08-18T15:15:18.401Z,23.40
2022-08-18T15:17:50.050Z,23.40
2022-08-18T15:20:29.473Z,23.40
2022-08-18T15:23:24.767Z,23.40
2022-08-18T15:25:52.281Z,23.30
2022-08-18T15:28:23.639Z,23.30
2022-08-18T15:30:52.059Z,23.30
2022-08-18T15:33:23.660Z,23.30
2022-08-18T15:35:51.509Z,23.40
2022-08-18T15:38:22.951Z,23.40
2022-08-18T15:40:58.892Z,23.40
2022-08-18T15:43:31.500Z,23.40
2022-08-18T15:46:00.133Z,23.40
2022-08-18T15:48:31.813Z,23.30
2022-08-18T15:51:07.956Z,23.20
2022-08-18T15:53:44.853Z,23.20
2022-08-18T15:56:15.306Z,23.10
2022-08-18T15:58:47.564Z,23.00
2022-08-18T16:01:29.929Z,22.80
2022-08-18T16:03:57.600Z,22.80
2022-08-18T16:06:27.694Z,22.60
2022-08-18T16:09:00.316Z,22.60
2022-08-18T16:11:29.409Z,22.50
2022-08-18T16:13:58.891Z,22.40
2022-08-18T16:16:29.180Z,22.40
2022-08-18T16:19:07.464Z,22.30
2022-08-18T16:21:34.197Z,22.40
2022-08-18T16:24:00.843Z,22.40
2022-08-18T16:26:27.677Z,22.30
2022-08-18T16:28:54.323Z,22.30
2022-08-18T16:31:26.444Z,22.20
2022-08-18T16:33:54.556Z,22.10
2022-08-18T16:36:25.097Z,22.00
2022-08-18T16:38:53.283Z,21.90
2022-08-18T16:41:20.511Z,21.80
2022-08-18T16:43:47.959Z,21.50
2022-08-18T16:46:18.595Z,21.50
2022-08-18T16:48:45.923Z,21.30
2022-08-18T16:51:15.244Z,21.30
2022-08-18T16:53:42.338Z,21.20
2022-08-18T16:56:17.731Z,21.10
2022-08-18T16:59:03.605Z,21.20
2022-08-18T17:01:52.406Z,21.00
2022-08-18T17:04:22.663Z,21.00
2022-08-18T17:06:50.668Z,21.00
2022-08-18T17:09:19.000Z,20.90
2022-08-18T17:11:48.105Z,20.90
2022-08-18T17:14:24.470Z,20.90
2022-08-18T17:16:55.861Z,20.80
2022-08-18T17:19:24.794Z,20.80
2022-08-18T17:21:51.757Z,20.70
2022-08-18T17:24:31.155Z,20.70
2022-08-18T17:27:02.201Z,20.70
2022-08-18T17:30:03.350Z,20.60
2022-08-18T17:32:46.699Z,20.60
2022-08-18T17:35:15.623Z,20.60
2022-08-18T17:37:54.429Z,20.60
2022-08-18T17:40:29.211Z,20.60
2022-08-18T17:42:57.262Z,20.60
2022-08-18T17:45:23.948Z,20.70
2022-08-18T17:48:17.637Z,20.70
2022-08-18T17:51:25.393Z,20.70
2022-08-18T17:53:52.313Z,20.70
2022-08-18T17:56:35.549Z,20.70
2022-08-18T17:59:50.858Z,20.80
2022-08-18T18:02:28.444Z,20.80
2022-08-18T18:04:59.995Z,20.80
2022-08-18T18:07:52.684Z,20.90
2022-08-18T18:10:51.034Z,20.90
2022-08-18T18:13:31.366Z,20.90
2022-08-18T18:16:23.255Z,20.80
2022-08-18T18:19:03.305Z,20.90
2022-08-18T18:22:00.265Z,20.90
2022-08-18T18:24:24.373Z,20.90
2022-08-18T18:26:52.109Z,21.00
2022-08-18T18:29:30.677Z,21.00
2022-08-18T18:32:24.131Z,21.00
2022-08-18T18:35:14.091Z,21.00
2022-08-18T18:38:12.316Z,21.00
2022-08-18T18:40:54.008Z,21.10
2022-08-18T18:43:36.125Z,21.10
2022-08-18T18:46:18.522Z,21.10
2022-08-18T18:48:51.402Z,21.10
2022-08-18T18:51:35.946Z,21.10
2022-08-18T18:54:30.098Z,21.10
2022-08-18T18:56:57.321Z,21.10
2022-08-18T18:59:38.597Z,21.10
2022-08-18T19:02:41.011Z,21.00
2022-08-18T19:05:38.506Z,21.00
2022-08-18T19:08:33.087Z,21.00
2022-08-18T19:11:09.061Z,21.00
2022-08-18T19:13:41.683Z,21.00
2022-08-18T19:16:32.291Z,21.00
2022-08-18T19:19:37.405Z,21.00
2022-08-18T19:22:06.849Z,21.00
2022-08-18T19:24:45.204Z,20.90
2022-08-18T19:27:23.615Z,20.90
2022-08-18T19:29:55.232Z,20.80
2022-08-18T19:32:38.730Z,20.80
2022-08-18T19:35:12.421Z,20.80
2022-08-18T19:38:00.706Z,20.90
2022-08-18T19:40:50.384Z,20.90
2022-08-18T19:43:27.785Z,20.80
2022-08-18T19:46:52.818Z,20.70
2022-08-18T19:49:22.297Z,20.60
2022-08-18T19:51:53.866Z,20.50
2022-08-18T19:54:46.812Z,20.50
2022-08-18T19:57:51.748Z,20.50
2022-08-18T20:00:33.897Z,20.30
2022-08-18T20:03:33.256Z,20.20
2022-08-18T20:06:35.102Z,20.20
2022-08-18T20:09:16.837Z,20.20
2022-08-18T20:12:31.029Z,20.30
2022-08-18T20:15:02.073Z,20.30
2022-08-18T20:17:29.227Z,20.30
2022-08-18T20:19:57.391Z,20.40
2022-08-18T20:22:25.064Z,20.40
2022-08-18T20:24:59.528Z,20.40
2022-08-18T20:27:39.935Z,20.40
2022-08-18T20:30:27.276Z,20.40
2022-08-18T20:33:15.184Z,20.40
2022-08-18T20:35:52.986Z,20.50
2022-08-18T20:38:35.523Z,20.40
2022-08-18T20:41:27.533Z,20.20
2022-08-18T20:43:58.595Z,20.20
2022-08-18T20:46:37.548Z,20.20
2022-08-18T20:49:21.901Z,20.30
2022-08-18T20:51:58.402Z,20.20
2022-08-18T20:55:11.470Z,20.20
2022-08-18T20:57:40.223Z,20.20
2022-08-18T21:00:27.008Z,20.20
2022-08-18T21:02:57.161Z,20.20
2022-08-18T21:05:28.585Z,20.20
2022-08-18T21:08:27.472Z,20.20
2022-08-18T21:11:06.475Z,20.20
2022-08-18T21:13:40.406Z,20.10
2022-08-18T21:16:09.424Z,20.10
2022-08-18T21:18:36.798Z,20.10
2022-08-18T21:21:08.707Z,20.10
2022-08-18T21:23:39.419Z,20.10
2022-08-18T21:26:09.691Z,20.00
2022-08-18T21:28:39.554Z,19.90
2022-08-18T21:31:42.634Z,19.90
2022-08-18T21:34:32.647Z,19.90
2022-08-18T21:37:02.022Z,19.90
2022-08-18T21:39:28.669Z,19.90
2022-08-18T21:41:57.865Z,19.80
2022-08-18T21:44:41.528Z,19.70
2022-08-18T21:47:14.030Z,19.60
2022-08-18T21:49:56.210Z,19.60
2022-08-18T21:52:24.286Z,19.60
2022-08-18T21:54:51.078Z,19.50
2022-08-18T21:57:24.720Z,19.50
2022-08-18T22:00:27.172Z,19.60
2022-08-18T22:03:20.506Z,19.60
2022-08-18T22:06:02.619Z,19.60
2022-08-18T22:08:43.723Z,19.60
2022-08-18T22:12:01.156Z,19.60
2022-08-18T22:14:53.853Z,19.50
2022-08-18T22:17:43.090Z,19.50
2022-08-18T22:20:31.964Z,19.50
2022-08-18T22:23:23.993Z,19.50
2022-08-18T22:25:51.141Z,19.40
2022-08-18T22:28:23.958Z,19.40
2022-08-18T22:30:54.299Z,19.40
2022-08-18T22:33:21.112Z,19.40
2022-08-18T22:35:56.696Z,19.30
2022-08-18T22:38:26.133Z,19.30
2022-08-18T22:40:52.819Z,19.30
2022-08-18T22:43:19.496Z,19.30
2022-08-18T22:45:46.209Z,19.20
2022-08-18T22:48:14.204Z,19.10
2022-08-18T22:50:44.781Z,19.10
2022-08-18T22:53:13.329Z,19.00
2022-08-18T22:55:40.722Z,19.00
2022-08-18T22:58:07.759Z,19.00
2022-08-18T23:00:36.462Z,18.90
2022-08-18T23:03:03.246Z,18.80
2022-08-18T23:05:29.950Z,18.90
2022-08-18T23:07:56.611Z,18.90
2022-08-18T23:10:23.319Z,19.00
2022-08-18T23:12:49.992Z,19.00
2022-08-18T23:15:18.064Z,19.00
2022-08-18T23:17:44.795Z,19.10
2022-08-18T23:20:17.488Z,19.20
2022-08-18T23:22:45.398Z,19.20
2022-08-18T23:25:13.179Z,19.20
2022-08-18T23:27:40.829Z,19.20
2022-08-18T23:30:08.529Z,19.20
2022-08-18T23:32:35.177Z,19.20
2022-08-18T23:35:02.323Z,19.20
2022-08-18T23:37:29.044Z,19.10
2022-08-18T23:39:55.877Z,19.10
2022-08-18T23:42:23.108Z,19.10
2022-08-18T23:44:50.487Z,19.10
2022-08-18T23:47:19.443Z,19.10
2022-08-18T23:49:46.433Z,19.10
2022-08-18T23:52:13.097Z,19.20
2022-08-18T23:54:39.753Z,19.20
2022-08-18T23:57:06.465Z,19.20
2022-08-18T23:59:33.108Z,19.20
